Flight Track Log - Related Links

Times and Time Zones

All times are in EDT time to prevent confusion due to time zone crossing. See the N934DL flight status page for this flight to view local times or setup timezone preferences in your user account.

Time Position Orientation Groundspeed Altitude Reporting Facility
EDT Latitude Longitude Course Direction KTS MPH feet Rate Location/Type
Tue 07:35:40 AM 41.9292 -72.7053 340° North 150 173 1,400  Level Boston Center
Tue 07:37:16 AM 41.9517 -72.8114 286° West 228 262 4,700 2,516 Climbing Boston Center
Tue 07:38:00 AM 42.1968 -72.8701 334° Northwest  Level FlightAware
Tue 07:38:15 AM 42.0267 -72.8397 344° North 235 270 7,900  Level Boston Center
Tue 07:39:00 AM 42.2775 -72.9304 340° North  Level FlightAware
Tue 07:39:16 AM 42.1161 -72.8739 344° North 267 307 10,600  Level Boston Center
Tue 07:40:00 AM 42.3657 -72.9911 340° North  Level FlightAware
Tue 07:40:13 AM 42.1994 -72.9108 342° North 322 371 12,400  Level Boston Center
Tue 07:41:00 AM 42.4589 -73.0377 340° North  Level FlightAware
Tue 07:41:14 AM 42.3014 -72.9539 343° North 346 398 15,700  Level Boston Center
Tue 07:42:15 AM 42.3928 -73.0081 336° Northwest 346 398 17,900 1,750 Climbing Boston Center
Tue 07:43:14 AM 42.4736 -73.0622 334° Northwest 353 406 19,200 1,400 Climbing Boston Center
Tue 07:44:15 AM 42.5147 -73.1864 294° West 334 384 20,700 1,311 Climbing Boston Center
Tue 07:45:13 AM 42.5469 -73.3333 287° West 365 420 21,800 1,462 Climbing Boston Center
Tue 07:46:14 AM 42.5811 -73.4889 287° West 413 475 23,600 1,770 Climbing Boston Center
Tue 07:47:15 AM 42.6169 -73.6419 288° West 418 481 25,400 1,850 Climbing Boston Center
Tue 07:48:14 AM 42.6486 -73.7922 286° West 418 481 27,300 2,000 Climbing Boston Center
Tue 07:49:15 AM 42.6844 -73.9342 289° West 418 481 29,400 1,835 Climbing Boston Center
Tue 07:50:15 AM 42.7158 -74.0761 287° West 408 470 31,000 1,322 Climbing Boston Center
Tue 07:51:13 AM 42.7450 -74.2183 286° West 402 463 32,000 458 Climbing Boston Center
Tue 07:52:26 AM 42.7781 -74.3608 288° West 397 457 32,000  Level Boston Center
Tue 07:53:25 AM 42.8128 -74.5289 286° West 397 457 32,000  Level Boston Center
Tue 07:54:25 AM 42.8433 -74.6714 286° West 397 457 32,000  Level Boston Center
Tue 07:55:26 AM 42.8717 -74.8142 285° West 397 457 32,000  Level Boston Center
Tue 07:56:26 AM 42.8811 -74.9619 275° West 397 457 32,000  Level Boston Center
Tue 07:57:27 AM 42.8858 -75.1122 273° West 397 457 32,000  Level Boston Center
Tue 07:58:26 AM 42.8908 -75.2572 273° West 397 457 32,000  Level Boston Center
Tue 07:59:28 AM 42.8953 -75.4047 272° West 392 451 32,000  Level Boston Center
Tue 08:00:25 AM 42.8978 -75.5522 271° West 392 451 32,000  Level Boston Center
Tue 08:01:26 AM 42.9019 -75.7000 272° West 392 451 32,000  Level Boston Center
Tue 08:02:39 AM 42.9050 -75.8786 271° West 392 451 32,000  Level Boston Center
Tue 08:03:38 AM 42.9089 -76.0236 272° West 386 444 32,000  Level Boston Center
Tue 08:04:39 AM 42.9106 -76.1683 271° West 386 444 32,000  Level Boston Center
Tue 08:06:39 AM 42.9142 -76.4636 271° West 386 444 32,000  Level Cleveland Center
Tue 08:07:39 AM 42.9169 -76.6053 272° West 381 438 32,000  Level Cleveland Center
Tue 08:08:39 AM 42.9183 -76.7669 271° West 381 438 32,000  Level Cleveland Center
Tue 08:09:39 AM 42.9208 -76.9114 271° West 381 438 32,000  Level Cleveland Center
Tue 08:10:39 AM 42.9233 -77.0558 271° West 381 438 32,000  Level Cleveland Center
Tue 08:11:39 AM 42.9256 -77.2033 271° West 386 444 32,000  Level Cleveland Center
Tue 08:12:39 AM 42.9278 -77.3506 271° West 386 444 32,000  Level Cleveland Center
Tue 08:13:39 AM 42.9297 -77.4953 271° West 386 444 32,000  Level Cleveland Center
Tue 08:14:39 AM 42.9292 -77.6397 270° West 386 444 32,000  Level Cleveland Center
Tue 08:15:39 AM 42.9325 -77.7731 272° West 386 444 32,000  Level Cleveland Center
Tue 08:16:39 AM 42.9339 -77.9147 271° West 386 444 32,000  Level Cleveland Center
Tue 08:17:39 AM 42.9328 -78.0594 269° West 386 444 32,000  Level Cleveland Center
Tue 08:18:39 AM 42.9317 -78.2042 269° West 386 444 32,000  Level Cleveland Center
Tue 08:19:39 AM 42.9328 -78.3514 271° West 386 444 32,000  Level Cleveland Center
Tue 08:20:39 AM 42.9333 -78.4933 270° West 386 444 32,000  Level Cleveland Center
Tue 08:21:39 AM 42.9317 -78.6381 269° West 386 444 32,000  Level Cleveland Center
Tue 08:22:39 AM 42.9131 -78.7831 260° West 386 444 32,000  Level Cleveland Center
Tue 08:23:39 AM 42.8922 -78.9283 259° West 391 450 32,000  Level Cleveland Center
Tue 08:24:39 AM 42.8714 -79.0706 259° West 391 450 32,000  Level Cleveland Center
Tue 08:25:39 AM 42.8481 -79.2097 257° West 391 450 32,000  Level Cleveland Center
Tue 08:26:39 AM 42.8289 -79.3517 260° West 391 450 32,000  Level Cleveland Center
Tue 08:27:39 AM 42.8072 -79.4964 259° West 391 450 32,000  Level Cleveland Center
Tue 08:28:39 AM 42.7856 -79.6411 259° West 391 450 32,000  Level Cleveland Center
Tue 08:29:39 AM 42.7639 -79.7800 258° West 391 450 32,000 -250 Level Cleveland Center
Tue 08:30:39 AM 42.7500 -79.9272 263° West 391 450 31,500 -800 Descending Cleveland Center
Tue 08:31:39 AM 42.7406 -80.0914 266° West 391 450 30,400 -1,000 Descending Cleveland Center
Tue 08:32:39 AM 42.7347 -80.2242 267° West 397 457 29,500 -1,100 Descending Cleveland Center
Tue 08:33:39 AM 42.7289 -80.3742 267° West 403 464 28,200 -750 Descending Cleveland Center
Tue 08:34:39 AM 42.7228 -80.5239 267° West 403 464 28,000 -100 Descending Cleveland Center
Tue 08:35:39 AM 42.7144 -80.6764 266° West 403 464 28,000  Level Cleveland Center
Tue 08:36:39 AM 42.7081 -80.8233 267° West 401 461 28,000 -800 Level Cleveland Center
Tue 08:37:39 AM 42.6972 -80.9758 265° West 401 461 26,400 -1,250 Descending Cleveland Center
Tue 08:38:39 AM 42.6819 -81.1256 262° West 408 470 25,500 -1,100 Descending Cleveland Center
Tue 08:39:39 AM 42.6625 -81.2722 260° West 402 463 24,200 -750 Descending Cleveland Center
Tue 08:40:39 AM 42.6467 -81.4300 262° West 402 463 24,000 -250 Descending Cleveland Center
Tue 08:41:39 AM 42.6289 -81.5792 261° West 397 457 23,700 -1,100 Descending Cleveland Center
Tue 08:42:39 AM 42.6108 -81.7228 260° West 397 457 21,800 -1,550 Descending Cleveland Center
Tue 08:43:39 AM 42.5928 -81.8608 260° West 392 451 20,600 -1,250 Descending Cleveland Center
Tue 08:44:39 AM 42.5744 -81.9986 260° West 386 444 19,300 -4,300 Descending Cleveland Center
Tue 08:45:39 AM 42.5603 -82.1364 262° West 381 438 12,000 -2,050 Descending Cleveland Center
Tue 08:46:39 AM 42.5417 -82.2656 259° West 368 423 15,200 1,500 Climbing Cleveland Center
Tue 08:47:03 AM 42.5389 -82.3161 266° West 341 392 14,100 -2,300 Descending Cleveland Center
Tue 08:47:39 AM 42.5253 -82.3892 256° West 349 402 12,900 -1,250 Descending Cleveland Center
Tue 08:48:39 AM 42.5128 -82.5069 262° West 337 388 12,100 -850 Descending Cleveland Center
Tue 08:49:39 AM 42.4817 -82.6214 250° West 326 375 11,200 -1,000 Descending Cleveland Center
Tue 08:50:39 AM 42.4467 -82.7217 245° Southwest 314 361 10,100 -950 Descending Cleveland Center
Tue 08:51:39 AM 42.4094 -82.8047 239° Southwest 285 328 9,300 -1,200 Descending Cleveland Center
Tue 08:52:39 AM 42.3914 -82.8828 253° West 234 269 7,700 -1,150 Descending Cleveland Center
Tue 08:53:39 AM 42.4253 -82.9517 304° West 197 227 7,000 -326 Descending Cleveland Center
Tue 08:54:48 AM 42.4831 -82.9847 337° Northwest 179 206 7,000 -150 Level Cleveland Center
Tue 08:55:39 AM 42.4967 -83.0303 292° West 167 192 6,700 -541 Descending Cleveland Center
Tue 08:56:39 AM 42.5081 -83.0872 285° West 154 177 6,000 -365 Descending Cleveland Center
Tue 08:57:34 AM 42.4908 -83.1319 242° Southwest 149 171 6,000  Level FAA TRACON
Tue 08:57:54 AM 42.4800 -83.1383 204° Southwest 153 176 6,000 150 Level FAA TRACON
Tue 08:58:14 AM 42.4686 -83.1483 213° Southwest 151 174 6,100  Climbing FAA TRACON
Tue 08:58:34 AM 42.4539 -83.1608 212° Southwest 153 176 6,000 -450 Descending FAA TRACON
Tue 08:58:54 AM 42.4419 -83.1692 207° Southwest 156 180 5,800 -750 Descending FAA TRACON
Tue 08:59:14 AM 42.4292 -83.1794 211° Southwest 154 177 5,500 -900 Descending FAA TRACON
Tue 08:59:34 AM 42.4169 -83.1878 207° Southwest 159 183 5,200 -1,050 Descending FAA TRACON
Tue 08:59:54 AM 42.4025 -83.1986 209° Southwest 157 181 4,800 -923 Descending FAA TRACON
Tue 09:00:13 AM 42.3911 -83.2072 209° Southwest 155 178 4,600 -769 Descending FAA TRACON
Tue 09:00:33 AM 42.3800 -83.2156 209° Southwest 155 178 4,300 -878 Descending FAA TRACON
Tue 09:00:54 AM 42.3667 -83.2267 212° Southwest 156 180 4,000 -878 Descending FAA TRACON
Tue 09:01:14 AM 42.3542 -83.2347 205° Southwest 154 177 3,700 -900 Descending FAA TRACON
Tue 09:01:34 AM 42.3408 -83.2444 208° Southwest 163 188 3,400 -900 Descending FAA TRACON
Tue 09:01:54 AM 42.3256 -83.2561 209° Southwest 173 199 3,100 -900 Descending FAA TRACON

Login

Don't have an account? Register now (free) for customized features, flight alerts, and more!